Time;durP1;ratioP1;P1;durP2;ratioP2;P2;SDS_P1;SDS_P2;PMS_P1;PMS_P2;Temp;Humidity;BMP_temperature;BMP_pressure;BME280_temperature;BME280_humidity;BME280_pressure;Samples;Min_cycle;Max_cycle;Signal;HPM_P1;HPM_P2
2022/01/26 00:00:43;;;;;;;48.17;24.73;;;1.60;97.20;;;;;;5033958;28;20225;-83
2022/01/26 00:06:13;;;;;;;47.17;23.83;;;1.70;96.50;;;;;;5052337;28;20275;-80
2022/01/26 00:08:40;;;;;;;47.47;24.90;;;1.70;96.10;;;;;;5051840;28;20198;-83
2022/01/26 00:11:09;;;;;;;50.20;24.27;;;1.60;96.00;;;;;;5053232;28;20546;-80
2022/01/26 00:13:35;;;;;;;43.80;23.73;;;1.50;96.10;;;;;;5050364;28;20198;-80
2022/01/26 00:16:06;;;;;;;42.67;23.83;;;1.20;96.10;;;;;;5049555;28;20231;-81
2022/01/26 00:18:36;;;;;;;44.63;23.93;;;1.20;96.80;;;;;;5047225;28;20209;-80
2022/01/26 00:21:09;;;;;;;46.93;24.53;;;1.10;96.90;;;;;;5046618;28;20222;-81
2022/01/26 00:26:27;;;;;;;47.57;24.87;;;0.90;97.10;;;;;;5054679;28;20274;-83
2022/01/26 00:29:08;;;;;;;48.73;24.07;;;0.70;97.50;;;;;;5041917;28;20202;-81
2022/01/26 00:39:59;;;;;;;49.37;24.53;;;1.10;97.20;;;;;;5045905;28;20247;-82
2022/01/26 00:42:34;;;;;;;45.13;23.50;;;1.10;97.10;;;;;;5052021;28;20941;-80
2022/01/26 00:45:01;;;;;;;44.80;23.13;;;1.10;97.20;;;;;;5050922;28;20202;-81
2022/01/26 00:47:28;;;;;;;51.07;24.90;;;1.10;97.20;;;;;;5048323;28;20312;-82
2022/01/26 00:49:59;;;;;;;49.87;26.13;;;0.90;97.10;;;;;;5053674;28;20308;-80
2022/01/26 00:52:37;;;;;;;46.80;24.03;;;0.80;97.40;;;;;;5055304;28;20244;-81
2022/01/26 00:55:04;;;;;;;51.27;25.07;;;0.90;97.80;;;;;;5054028;28;20539;-81
2022/01/26 00:57:33;;;;;;;45.23;23.23;;;1.10;97.60;;;;;;5061150;28;20279;-80
2022/01/26 01:00:00;;;;;;;47.67;24.53;;;1.10;97.30;;;;;;5051396;28;20195;-83
2022/01/26 01:02:29;;;;;;;47.73;25.23;;;1.20;96.90;;;;;;5071067;28;20247;-80
2022/01/26 01:04:59;;;;;;;50.63;25.50;;;1.30;96.90;;;;;;5081400;28;20202;-81
2022/01/26 01:07:26;;;;;;;47.00;23.93;;;1.20;97.20;;;;;;5060952;28;20709;-80
2022/01/26 01:09:53;;;;;;;47.43;24.73;;;1.10;96.90;;;;;;5048234;28;20218;-82
2022/01/26 01:12:19;;;;;;;41.83;22.60;;;1.30;96.90;;;;;;5052332;28;20252;-81
2022/01/26 01:14:48;;;;;;;45.87;24.67;;;1.30;96.80;;;;;;5051783;28;20305;-81
2022/01/26 01:17:23;;;;;;;43.63;23.47;;;1.30;96.70;;;;;;5053101;28;20726;-81
2022/01/26 01:20:08;;;;;;;46.90;24.63;;;1.30;96.60;;;;;;5047146;28;20198;-80
2022/01/26 01:22:50;;;;;;;47.60;24.60;;;1.30;96.60;;;;;;5050793;28;20308;-81
2022/01/26 01:28:26;;;;;;;52.17;25.27;;;1.10;96.80;;;;;;4962826;28;20225;-83
2022/01/26 01:30:58;;;;;;;50.57;25.03;;;1.10;96.70;;;;;;5041395;28;20726;-81
2022/01/26 01:33:31;;;;;;;46.33;23.33;;;1.10;96.90;;;;;;5046105;28;20249;-81
2022/01/26 01:36:00;;;;;;;51.97;24.33;;;1.10;97.00;;;;;;5049708;28;20190;-80
2022/01/26 01:38:29;;;;;;;49.13;24.70;;;1.20;96.80;;;;;;5069403;28;20624;-82
2022/01/26 01:40:57;;;;;;;48.17;24.40;;;1.10;96.90;;;;;;5067483;28;20221;-80
2022/01/26 01:43:24;;;;;;;46.87;24.77;;;1.10;96.90;;;;;;5047673;28;20194;-81
2022/01/26 01:45:56;;;;;;;45.90;23.40;;;1.10;97.20;;;;;;5043859;28;20288;-82
2022/01/26 01:48:29;;;;;;;48.00;23.33;;;1.00;96.80;;;;;;5027293;28;20233;-82
2022/01/26 01:51:01;;;;;;;43.83;23.07;;;1.10;96.90;;;;;;5049777;28;20209;-82
2022/01/26 01:53:34;;;;;;;43.47;23.00;;;1.10;96.90;;;;;;5066009;28;20202;-82
2022/01/26 01:56:01;;;;;;;46.83;24.20;;;1.10;96.90;;;;;;5063195;28;20270;-81
2022/01/26 01:58:29;;;;;;;42.23;22.77;;;1.10;96.90;;;;;;5072754;28;20687;-80
2022/01/26 02:00:57;;;;;;;42.53;23.20;;;1.10;96.90;;;;;;5073614;28;20328;-80
2022/01/26 02:03:25;;;;;;;41.50;22.50;;;1.10;96.60;;;;;;5075951;28;20648;-85
2022/01/26 02:05:52;;;;;;;43.83;22.63;;;1.00;96.80;;;;;;5083688;28;20608;-81
2022/01/26 02:08:20;;;;;;;66.03;22.50;;;0.90;96.80;;;;;;5063937;28;20236;-86
2022/01/26 02:10:47;;;;;;;91.90;23.10;;;0.90;96.80;;;;;;5072631;28;20197;-81
2022/01/26 02:13:20;;;;;;;46.93;21.87;;;0.90;96.60;;;;;;5045789;28;20854;-81
2022/01/26 02:15:54;;;;;;;54.47;22.17;;;0.90;96.80;;;;;;5061337;28;20195;-84
2022/01/26 02:18:38;;;;;;;41.43;21.10;;;0.90;96.80;;;;;;5043069;28;20216;-82
2022/01/26 02:21:37;;;;;;;67.33;22.10;;;0.80;96.80;;;;;;5041912;28;20705;-82
2022/01/26 02:51:58;;;;;;;68.23;21.00;;;0.30;97.20;;;;;;5040865;28;20231;-83
2022/01/26 02:57:30;;;;;;;39.13;18.40;;;0.30;97.00;;;;;;5044740;28;20217;-81
2022/01/26 03:00:15;;;;;;;50.93;19.67;;;0.30;97.50;;;;;;5039665;28;20263;-82
2022/01/26 03:02:48;;;;;;;43.73;18.60;;;0.30;97.10;;;;;;5049513;28;20229;-82
2022/01/26 03:05:17;;;;;;;42.43;18.13;;;0.30;97.00;;;;;;5042593;28;20193;-81
2022/01/26 03:07:50;;;;;;;37.00;18.67;;;0.30;97.00;;;;;;5068678;28;20639;-80
2022/01/26 03:10:22;;;;;;;43.20;19.63;;;0.40;97.00;;;;;;5072354;28;20599;-80
2022/01/26 03:12:55;;;;;;;39.83;18.70;;;0.50;96.80;;;;;;5051727;28;20242;-80
2022/01/26 03:15:27;;;;;;;61.80;19.03;;;0.50;96.80;;;;;;5052704;28;20221;-80
2022/01/26 03:18:21;;;;;;;41.80;18.53;;;0.40;96.50;;;;;;5049777;28;20278;-80
2022/01/26 03:20:50;;;;;;;104.23;18.67;;;0.50;96.70;;;;;;5054875;28;20217;-80
2022/01/26 03:29:08;;;;;;;30.63;17.13;;;0.20;97.10;;;;;;5055714;28;20196;-84
2022/01/26 03:32:06;;;;;;;36.50;17.07;;;0.20;96.90;;;;;;5050859;28;20241;-81
2022/01/26 03:34:28;;;;;;;28.93;15.43;;;0.20;96.70;;;;;;5047809;28;20225;-84
2022/01/26 03:36:58;;;;;;;28.50;15.50;;;0.30;96.50;;;;;;5056590;28;20217;-80
2022/01/26 03:39:28;;;;;;;25.33;14.70;;;0.20;96.10;;;;;;5076512;28;20196;-80
2022/01/26 03:42:04;;;;;;;32.53;14.80;;;0.10;96.10;;;;;;5080849;28;20699;-82
2022/01/26 03:44:34;;;;;;;27.87;14.27;;;0.10;96.30;;;;;;5080742;28;20195;-81
2022/01/26 03:47:01;;;;;;;56.57;14.40;;;0.00;96.60;;;;;;5071409;28;20233;-83
2022/01/26 03:49:28;;;;;;;50.23;15.20;;;0.00;96.00;;;;;;5084298;28;20220;-80
2022/01/26 03:51:55;;;;;;;25.83;13.50;;;0.00;96.10;;;;;;5057640;28;20227;-80
2022/01/26 03:54:23;;;;;;;21.03;12.97;;;-0.10;96.40;;;;;;5050196;28;20205;-79
2022/01/26 03:56:50;;;;;;;24.80;13.30;;;-0.10;96.80;;;;;;5039715;28;20222;-79
2022/01/26 03:59:19;;;;;;;18.90;12.90;;;-0.20;96.20;;;;;;5048513;28;20553;-80
2022/01/26 04:01:46;;;;;;;23.50;13.10;;;-0.10;96.40;;;;;;5045948;28;20549;-81
2022/01/26 04:04:12;;;;;;;33.20;13.83;;;-0.10;96.40;;;;;;5055447;28;20288;-81
2022/01/26 04:06:40;;;;;;;55.73;14.83;;;0.00;96.50;;;;;;5041884;28;20578;-79
2022/01/26 04:09:10;;;;;;;29.10;15.60;;;-0.10;96.20;;;;;;5048730;28;20247;-81
2022/01/26 04:11:40;;;;;;;26.80;14.70;;;0.00;96.30;;;;;;5060080;28;20753;-85
2022/01/26 04:14:12;;;;;;;25.53;14.83;;;0.10;96.40;;;;;;5079105;28;20655;-83
2022/01/26 04:16:44;;;;;;;21.17;13.27;;;0.00;96.20;;;;;;5068940;28;20305;-79
2022/01/26 04:19:11;;;;;;;21.10;12.27;;;0.00;96.00;;;;;;5051075;28;20284;-84
2022/01/26 04:21:51;;;;;;;20.03;12.67;;;-0.10;95.90;;;;;;5051619;28;20591;-80
2022/01/26 04:24:23;;;;;;;19.90;11.90;;;-0.10;95.90;;;;;;5044292;28;20199;-79
2022/01/26 04:26:55;;;;;;;22.10;13.80;;;-0.10;95.70;;;;;;5039244;28;20565;-79
2022/01/26 04:29:26;;;;;;;21.00;12.77;;;0.00;95.70;;;;;;5043889;28;20193;-80
2022/01/26 04:31:55;;;;;;;22.70;13.77;;;0.10;95.60;;;;;;5041375;28;20280;-80
2022/01/26 04:34:22;;;;;;;22.80;13.70;;;0.10;95.40;;;;;;5044362;28;20681;-81
2022/01/26 04:36:53;;;;;;;21.17;13.33;;;0.00;95.40;;;;;;5055587;28;20224;-79
2022/01/26 04:39:25;;;;;;;22.27;13.17;;;0.00;95.70;;;;;;5067005;28;20198;-79
2022/01/26 04:41:56;;;;;;;19.27;12.57;;;0.10;95.50;;;;;;5065206;28;20223;-80
2022/01/26 04:44:26;;;;;;;22.60;13.63;;;0.10;95.20;;;;;;5067140;28;20194;-81
2022/01/26 04:46:55;;;;;;;21.37;12.50;;;0.00;95.30;;;;;;5065060;28;20229;-81
2022/01/26 04:49:22;;;;;;;19.90;11.97;;;-0.10;95.30;;;;;;5064615;28;20223;-80
2022/01/26 04:51:49;;;;;;;21.40;12.63;;;-0.20;95.50;;;;;;5066322;28;20228;-79
2022/01/26 04:54:16;;;;;;;20.73;12.40;;;-0.10;95.60;;;;;;5050639;28;20281;-79
2022/01/26 04:56:43;;;;;;;19.40;11.77;;;-0.10;95.50;;;;;;5052435;28;20560;-81
2022/01/26 04:59:10;;;;;;;20.13;11.87;;;-0.10;95.20;;;;;;5042377;28;20286;-81
2022/01/26 05:01:37;;;;;;;18.27;10.90;;;-0.10;95.30;;;;;;5049847;28;20313;-81
2022/01/26 05:04:05;;;;;;;14.63;9.60;;;-0.20;95.10;;;;;;5074807;28;20208;-82
2022/01/26 05:06:32;;;;;;;12.30;8.40;;;-0.20;94.70;;;;;;5063324;28;20224;-80
2022/01/26 05:08:59;;;;;;;13.23;8.87;;;-0.30;94.70;;;;;;5066068;28;20204;-80
2022/01/26 05:11:33;;;;;;;12.13;8.77;;;-0.30;94.50;;;;;;5069536;28;20234;-82
2022/01/26 05:14:00;;;;;;;12.37;8.63;;;-0.20;94.30;;;;;;5063749;28;20224;-81
2022/01/26 05:16:28;;;;;;;13.27;8.77;;;-0.40;94.40;;;;;;5063289;28;20318;-81
2022/01/26 05:18:55;;;;;;;13.77;9.33;;;-0.50;93.90;;;;;;5046809;28;20273;-81
2022/01/26 05:21:24;;;;;;;13.80;10.17;;;-0.60;94.50;;;;;;5039124;28;20274;-83
2022/01/26 05:23:51;;;;;;;13.63;9.20;;;-0.60;94.20;;;;;;5044858;28;20525;-83
2022/01/26 05:26:18;;;;;;;14.37;9.40;;;-0.60;93.90;;;;;;5048096;28;20685;-83
2022/01/26 05:28:45;;;;;;;14.10;9.53;;;-0.70;93.90;;;;;;5045492;28;20195;-81
2022/01/26 05:31:12;;;;;;;14.60;9.40;;;-0.70;94.10;;;;;;5042140;28;20293;-84
2022/01/26 05:33:39;;;;;;;14.23;10.10;;;-0.70;93.90;;;;;;5047749;28;20656;-80
2022/01/26 05:36:07;;;;;;;13.73;9.47;;;-0.80;93.80;;;;;;5045475;28;20194;-84
2022/01/26 05:38:35;;;;;;;13.63;9.37;;;-0.70;93.90;;;;;;5045857;28;20561;-80
2022/01/26 05:41:04;;;;;;;14.97;9.50;;;-0.80;93.90;;;;;;5042285;28;20289;-80
2022/01/26 05:43:31;;;;;;;14.30;10.10;;;-1.00;93.80;;;;;;5046383;28;20735;-82
2022/01/26 05:46:03;;;;;;;13.80;9.60;;;-1.30;94.40;;;;;;5049944;28;20251;-81
2022/01/26 05:48:46;;;;;;;13.97;9.53;;;-1.40;95.00;;;;;;5049155;28;20221;-82
2022/01/26 05:51:15;;;;;;;16.33;10.03;;;-1.40;95.10;;;;;;5047340;28;20733;-82
2022/01/26 05:53:43;;;;;;;13.57;9.40;;;-1.40;95.20;;;;;;5046091;28;20201;-81
2022/01/26 05:56:10;;;;;;;14.67;9.50;;;-1.50;95.30;;;;;;5055291;28;20201;-82
2022/01/26 05:58:37;;;;;;;15.77;10.00;;;-1.60;95.20;;;;;;5054601;28;20649;-81
2022/01/26 06:01:05;;;;;;;13.87;10.20;;;-1.80;95.50;;;;;;5046736;28;20198;-83
2022/01/26 06:03:36;;;;;;;13.30;9.30;;;-1.90;96.20;;;;;;5037147;28;20222;-82
2022/01/26 06:06:03;;;;;;;14.20;9.63;;;-1.90;96.20;;;;;;5044461;28;20191;-81
2022/01/26 06:08:31;;;;;;;14.50;9.77;;;-1.80;96.30;;;;;;5051239;28;20824;-83
2022/01/26 06:10:59;;;;;;;13.47;9.77;;;-1.90;96.20;;;;;;5053668;28;20202;-84
2022/01/26 06:13:27;;;;;;;15.83;9.70;;;-1.80;96.10;;;;;;5062642;28;20639;-80
2022/01/26 06:15:54;;;;;;;13.77;9.30;;;-1.80;96.20;;;;;;5073540;28;20193;-81
2022/01/26 06:19:10;;;;;;;14.50;9.63;;;-1.90;96.30;;;;;;5070256;28;20221;-81
2022/01/26 06:21:38;;;;;;;13.27;9.57;;;-1.80;96.00;;;;;;5059065;28;20238;-81
2022/01/26 06:24:06;;;;;;;14.10;9.73;;;-1.90;95.70;;;;;;5047161;28;20780;-81
2022/01/26 06:26:34;;;;;;;14.27;9.57;;;-2.00;96.20;;;;;;5045326;28;20245;-82
2022/01/26 06:29:01;;;;;;;15.17;9.60;;;-1.90;96.00;;;;;;5046440;28;20213;-84
2022/01/26 06:31:31;;;;;;;15.20;10.43;;;-1.90;96.20;;;;;;5049898;28;20244;-85
2022/01/26 06:34:02;;;;;;;17.10;10.10;;;-1.90;96.20;;;;;;5040707;28;20217;-84
2022/01/26 06:36:30;;;;;;;14.23;9.50;;;-1.80;96.10;;;;;;5037158;28;20226;-87
2022/01/26 06:38:59;;;;;;;14.87;9.77;;;-1.90;96.10;;;;;;5044853;28;20205;-81
2022/01/26 06:41:27;;;;;;;14.83;10.27;;;-1.90;96.20;;;;;;5048414;28;20245;-82
2022/01/26 06:44:02;;;;;;;15.13;10.23;;;-1.90;96.20;;;;;;5046327;28;20202;-82
2022/01/26 06:46:37;;;;;;;14.40;9.73;;;-1.90;96.20;;;;;;5058492;28;20232;-81
2022/01/26 06:51:45;;;;;;;15.47;10.47;;;-1.80;95.90;;;;;;5058922;28;20240;-89
2022/01/26 06:54:12;;;;;;;15.80;10.00;;;-1.90;95.60;;;;;;5041278;28;20294;-84
2022/01/26 06:56:39;;;;;;;15.50;10.33;;;-2.00;96.20;;;;;;5045482;28;20225;-85
2022/01/26 06:59:07;;;;;;;14.40;9.50;;;-1.90;96.30;;;;;;5047028;28;20201;-81
2022/01/26 07:01:34;;;;;;;14.37;10.10;;;-1.80;96.30;;;;;;5034223;28;20328;-81
2022/01/26 07:04:00;;;;;;;14.87;10.17;;;-1.70;96.00;;;;;;5036843;28;20199;-82
2022/01/26 07:06:27;;;;;;;14.03;9.80;;;-1.70;95.90;;;;;;5046329;28;20321;-83
2022/01/26 07:08:54;;;;;;;15.23;10.53;;;-1.80;95.90;;;;;;5052720;28;20197;-81
2022/01/26 07:11:21;;;;;;;15.97;10.67;;;-1.80;96.20;;;;;;5042230;28;20309;-80
2022/01/26 07:13:50;;;;;;;14.23;10.10;;;-1.80;96.30;;;;;;5053173;28;20204;-84
2022/01/26 07:21:58;;;;;;;14.10;9.40;;;-1.50;98.10;;;;;;5043285;28;20692;-79
2022/01/26 07:24:25;;;;;;;13.47;9.43;;;-0.80;97.40;;;;;;5046771;28;20275;-81
2022/01/26 07:26:54;;;;;;;15.87;9.63;;;-0.20;95.80;;;;;;5049854;28;20245;-81
2022/01/26 07:29:23;;;;;;;13.77;9.20;;;0.10;94.00;;;;;;5055535;28;20198;-81
2022/01/26 07:31:53;;;;;;;15.80;9.60;;;0.30;94.30;;;;;;5048184;28;20232;-82
2022/01/26 07:34:23;;;;;;;14.83;9.50;;;0.50;92.70;;;;;;5044437;28;20308;-80
2022/01/26 07:36:52;;;;;;;13.30;9.13;;;0.00;92.00;;;;;;5054679;28;20227;-81
2022/01/26 07:39:30;;;;;;;14.30;9.13;;;-0.40;92.60;;;;;;5053679;28;20598;-80
2022/01/26 07:41:58;;;;;;;17.10;10.53;;;-0.50;93.80;;;;;;5057253;28;20713;-80
2022/01/26 07:44:25;;;;;;;14.33;9.60;;;-0.50;94.30;;;;;;5052590;28;20248;-85
2022/01/26 07:46:53;;;;;;;16.20;9.50;;;-0.60;93.90;;;;;;5051393;28;20234;-81
2022/01/26 07:49:23;;;;;;;43.07;24.20;;;-0.60;95.50;;;;;;5052989;28;20243;-78
2022/01/26 07:51:51;;;;;;;31.67;18.23;;;0.00;95.60;;;;;;5053598;28;20592;-79
2022/01/26 07:54:19;;;;;;;13.03;9.20;;;0.30;94.30;;;;;;5053852;28;20198;-79
2022/01/26 07:56:46;;;;;;;32.23;21.30;;;0.30;93.60;;;;;;5053522;28;20235;-78
2022/01/26 07:59:18;;;;;;;23.63;14.23;;;0.50;94.30;;;;;;5051210;28;20652;-82
2022/01/26 08:01:45;;;;;;;16.40;10.17;;;0.50;94.10;;;;;;5047326;28;20692;-79
2022/01/26 08:04:13;;;;;;;26.33;15.30;;;0.50;93.80;;;;;;5054965;28;20223;-79
2022/01/26 08:06:48;;;;;;;16.93;11.07;;;1.30;93.40;;;;;;5054672;28;20240;-79
2022/01/26 08:09:15;;;;;;;22.67;13.00;;;1.90;91.10;;;;;;5038901;28;20193;-79
2022/01/26 08:11:42;;;;;;;21.57;12.10;;;2.20;90.20;;;;;;5039960;28;20727;-80
2022/01/26 08:14:09;;;;;;;15.03;9.93;;;2.20;89.30;;;;;;5046918;28;20199;-79
2022/01/26 08:16:38;;;;;;;16.70;10.83;;;2.20;89.60;;;;;;5043188;28;20868;-81
2022/01/26 08:19:05;;;;;;;16.67;11.03;;;2.10;90.10;;;;;;5047785;28;20198;-82
2022/01/26 08:21:34;;;;;;;18.83;11.20;;;2.20;90.70;;;;;;5044628;28;20718;-82
2022/01/26 08:24:11;;;;;;;22.43;10.83;;;2.10;88.60;;;;;;5042932;28;20226;-80
2022/01/26 08:26:41;;;;;;;18.07;11.60;;;2.20;90.50;;;;;;5041436;28;20685;-83
2022/01/26 08:29:14;;;;;;;16.50;10.53;;;2.00;91.20;;;;;;5045900;28;20548;-80
2022/01/26 08:31:41;;;;;;;17.50;10.70;;;1.90;90.70;;;;;;5048119;28;20288;-81
2022/01/26 08:34:09;;;;;;;17.03;11.37;;;1.90;91.00;;;;;;5057098;28;20221;-81
2022/01/26 08:36:37;;;;;;;17.40;10.97;;;2.10;92.10;;;;;;5057192;28;20565;-83
2022/01/26 08:39:04;;;;;;;16.97;11.10;;;2.40;91.70;;;;;;5057078;28;20208;-81
2022/01/26 08:41:31;;;;;;;18.50;11.40;;;2.80;91.20;;;;;;5055598;28;20229;-88
2022/01/26 08:43:58;;;;;;;19.73;10.77;;;3.10;90.10;;;;;;5057102;28;20224;-80
2022/01/26 08:46:24;;;;;;;18.77;11.03;;;3.40;88.00;;;;;;5056810;28;20232;-79
2022/01/26 08:48:52;;;;;;;20.40;10.90;;;3.60;85.60;;;;;;5049627;28;20228;-81
2022/01/26 08:51:19;;;;;;;14.50;10.53;;;3.80;80.80;;;;;;5053362;28;20264;-83
2022/01/26 08:53:47;;;;;;;20.73;11.37;;;4.00;81.20;;;;;;5051752;28;20213;-83
2022/01/26 08:56:15;;;;;;;17.40;11.30;;;4.20;79.30;;;;;;5050936;28;20210;-85
2022/01/26 08:58:48;;;;;;;19.30;11.13;;;4.20;76.20;;;;;;5051138;28;20616;-87
2022/01/26 09:01:14;;;;;;;15.90;10.80;;;4.30;78.80;;;;;;5058938;28;20216;-86
2022/01/26 09:03:43;;;;;;;15.60;11.20;;;4.90;76.40;;;;;;5055766;28;20221;-86
2022/01/26 09:06:10;;;;;;;15.07;11.33;;;5.00;74.90;;;;;;5049699;28;20222;-85
2022/01/26 09:08:39;;;;;;;15.25;11.00;;;5.40;70.10;;;;;;5058530;28;20196;-85
2022/01/26 09:11:22;;;;;;;17.05;11.52;;;5.70;63.80;;;;;;5054162;28;20201;-85
2022/01/26 09:13:56;;;;;;;15.70;11.00;;;6.50;57.00;;;;;;5062645;28;20229;-84
2022/01/26 09:16:24;;;;;;;17.10;12.02;;;7.40;51.50;;;;;;5070602;28;20229;-85
2022/01/26 09:18:53;;;;;;;17.85;11.77;;;8.30;45.00;;;;;;5080419;28;20189;-84
2022/01/26 09:28:16;;;;;;;15.05;10.73;;;9.50;34.10;;;;;;5041945;28;20800;-85
2022/01/26 09:30:43;;;;;;;14.57;11.15;;;10.30;32.40;;;;;;5048190;28;20194;-85
2022/01/26 09:33:09;;;;;;;16.42;11.52;;;11.00;29.30;;;;;;5048176;28;20226;-85
2022/01/26 09:35:36;;;;;;;13.60;11.50;;;11.30;27.70;;;;;;5047987;28;20732;-85
2022/01/26 09:38:03;;;;;;;41.25;32.58;;;11.00;28.70;;;;;;5063475;28;20304;-84
2022/01/26 09:40:30;;;;;;;19.08;15.52;;;11.90;28.50;;;;;;5074504;28;20280;-85
2022/01/26 09:42:57;;;;;;;22.48;17.48;;;13.40;26.50;;;;;;5070094;28;20293;-84
2022/01/26 09:45:26;;;;;;;18.15;13.60;;;13.50;22.70;;;;;;5068829;28;20610;-84
2022/01/26 09:47:53;;;;;;;15.52;12.05;;;13.80;22.40;;;;;;5061447;28;20249;-84
2022/01/26 09:50:20;;;;;;;14.68;11.98;;;13.90;21.70;;;;;;5050152;28;20289;-88
2022/01/26 09:52:54;;;;;;;14.43;11.48;;;14.30;22.30;;;;;;5046858;28;20267;-84
2022/01/26 09:55:21;;;;;;;18.38;12.38;;;13.70;20.80;;;;;;5050431;28;20194;-84
2022/01/26 09:57:48;;;;;;;14.27;12.27;;;12.90;23.30;;;;;;5042571;28;20897;-84
2022/01/26 10:00:16;;;;;;;14.07;12.48;;;12.40;25.50;;;;;;5052865;28;20228;-83
2022/01/26 10:02:55;;;;;;;16.35;12.23;;;12.60;23.40;;;;;;5048699;28;20227;-84
2022/01/26 10:05:22;;;;;;;14.95;12.80;;;12.20;25.50;;;;;;5050078;28;20194;-83
2022/01/26 10:08:07;;;;;;;13.77;11.35;;;13.10;25.00;;;;;;5042601;28;20765;-83
2022/01/26 10:15:27;;;;;;;13.98;12.23;;;13.30;23.70;;;;;;5048087;28;20198;-83
2022/01/26 10:16:48;;;;;;;16.50;12.93;;;14.30;20.00;;;;;;5066658;28;20220;-85
2022/01/26 10:19:19;;;;;;;17.42;14.32;;;13.90;20.70;;;;;;5066993;28;20675;-83
2022/01/26 10:21:46;;;;;;;18.92;13.02;;;14.20;20.30;;;;;;5053489;28;20309;-86
2022/01/26 10:24:13;;;;;;;18.40;15.40;;;13.50;20.90;;;;;;5058598;28;20222;-83
2022/01/26 10:26:40;;;;;;;23.95;18.83;;;12.70;23.30;;;;;;5054543;28;20226;-84
2022/01/26 10:29:07;;;;;;;15.32;12.52;;;12.40;25.70;;;;;;5055296;28;20200;-83
2022/01/26 10:31:36;;;;;;;20.70;15.32;;;12.30;25.60;;;;;;5052626;28;20221;-85
2022/01/26 10:34:06;;;;;;;17.95;12.68;;;12.60;25.80;;;;;;5046412;28;20269;-83
2022/01/26 10:36:37;;;;;;;16.45;13.52;;;12.70;25.20;;;;;;5048081;28;20245;-85
2022/01/26 10:39:07;;;;;;;17.13;13.57;;;12.40;25.70;;;;;;5075725;28;20196;-83
2022/01/26 10:41:34;;;;;;;16.77;13.07;;;12.00;25.30;;;;;;5073480;28;20312;-83
2022/01/26 10:44:03;;;;;;;24.63;19.98;;;11.30;24.70;;;;;;5059638;28;20244;-86
2022/01/26 10:46:35;;;;;;;26.10;17.70;;;12.00;25.30;;;;;;5057466;28;20233;-83
2022/01/26 10:49:16;;;;;;;13.68;11.77;;;12.30;25.60;;;;;;5080727;28;20213;-85
2022/01/26 10:57:51;;;;;;;18.55;12.75;;;12.10;25.40;;;;;;5016760;28;20377;-86
2022/01/26 11:00:22;;;;;;;16.50;12.65;;;11.30;24.70;;;;;;5015958;28;20210;-84
2022/01/26 11:02:49;;;;;;;15.30;12.45;;;10.70;24.60;;;;;;5002634;28;20227;-84
2022/01/26 11:05:16;;;;;;;18.20;12.90;;;10.40;26.50;;;;;;5014149;28;20247;-84
2022/01/26 11:07:45;;;;;;;16.73;14.68;;;10.10;28.60;;;;;;5054170;28;20217;-85
2022/01/26 11:10:13;;;;;;;19.08;12.30;;;10.00;28.70;;;;;;5059040;28;20255;-85
2022/01/26 11:12:42;;;;;;;17.83;14.45;;;9.70;31.30;;;;;;5058211;28;20217;-85
2022/01/26 11:16:01;;;;;;;18.52;13.10;;;9.80;31.70;;;;;;5060722;28;20221;-84
2022/01/26 11:18:33;;;;;;;20.67;16.33;;;9.50;31.90;;;;;;5060098;28;20252;-84
2022/01/26 11:21:00;;;;;;;16.95;12.60;;;9.80;31.40;;;;;;5057332;28;20267;-84
2022/01/26 11:23:36;;;;;;;19.42;13.52;;;9.60;32.00;;;;;;5050343;28;20569;-86
2022/01/26 11:26:04;;;;;;;19.00;12.25;;;9.00;33.60;;;;;;5048335;28;20280;-86
2022/01/26 11:28:31;;;;;;;15.02;11.20;;;8.50;35.40;;;;;;5043671;28;20201;-85
2022/01/26 11:31:05;;;;;;;23.85;15.43;;;7.70;37.50;;;;;;5046978;28;20278;-85
2022/01/26 11:33:36;;;;;;;28.25;20.10;;;7.20;46.10;;;;;;5062891;28;20237;-85
2022/01/26 11:36:06;;;;;;;17.25;12.38;;;7.10;51.30;;;;;;5061294;28;20202;-86
2022/01/26 11:42:21;;;;;;;20.67;13.18;;;7.20;50.70;;;;;;5024302;28;20214;-85
2022/01/26 11:45:06;;;;;;;15.10;11.52;;;7.10;48.60;;;;;;5026363;28;21019;-83
2022/01/26 11:47:34;;;;;;;16.20;12.20;;;6.70;48.90;;;;;;5049374;28;20228;-85
2022/01/26 11:50:12;;;;;;;22.73;13.82;;;6.60;51.70;;;;;;5065070;28;20632;-84
2022/01/26 11:52:40;;;;;;;17.90;11.93;;;6.70;53.80;;;;;;5043373;28;20248;-84
2022/01/26 11:55:24;;;;;;;19.10;12.57;;;6.60;53.90;;;;;;5037884;28;20199;-84
2022/01/26 11:57:53;;;;;;;17.43;12.57;;;6.70;54.00;;;;;;5038035;28;20731;-84
2022/01/26 12:00:38;;;;;;;19.60;13.27;;;6.80;54.20;;;;;;5039807;28;20194;-85
2022/01/26 12:03:19;;;;;;;22.63;12.93;;;6.60;53.90;;;;;;5040505;28;20231;-86
2022/01/26 12:05:47;;;;;;;21.13;13.33;;;6.60;53.10;;;;;;5046891;28;20201;-87
2022/01/26 12:08:15;;;;;;;21.50;13.03;;;6.30;53.50;;;;;;5042576;28;20222;-84
2022/01/26 12:10:45;;;;;;;19.17;13.10;;;6.30;54.60;;;;;;5051329;28;20194;-85
2022/01/26 12:13:16;;;;;;;21.30;12.83;;;6.20;54.90;;;;;;5040804;28;20221;-87
2022/01/26 12:15:48;;;;;;;19.03;13.50;;;6.10;56.10;;;;;;5048771;28;20191;-84
2022/01/26 12:18:25;;;;;;;20.80;12.97;;;6.10;56.90;;;;;;5037613;28;20230;-84
2022/01/26 12:32:37;;;;;;;24.10;14.03;;;6.30;56.30;;;;;;5052514;28;20299;-83
2022/01/26 12:35:15;;;;;;;22.70;13.77;;;6.20;57.80;;;;;;5071799;28;20197;-84
2022/01/26 12:37:53;;;;;;;20.03;13.43;;;6.20;57.80;;;;;;5067514;28;20228;-86
2022/01/26 12:43:47;;;;;;;18.63;13.63;;;6.00;56.90;;;;;;5061925;28;20533;-85
2022/01/26 12:46:19;;;;;;;20.87;14.50;;;6.00;59.30;;;;;;5069238;28;20265;-83
2022/01/26 12:48:57;;;;;;;25.77;14.97;;;6.00;60.70;;;;;;5068788;28;20221;-83
2022/01/26 12:51:41;;;;;;;26.03;15.17;;;6.00;60.10;;;;;;5065217;28;20228;-84
2022/01/26 12:54:10;;;;;;;23.53;14.90;;;6.20;57.80;;;;;;5073258;28;20201;-83
2022/01/26 12:56:43;;;;;;;27.93;15.47;;;6.20;58.20;;;;;;5068023;28;20236;-85
2022/01/26 12:59:16;;;;;;;20.73;13.47;;;6.10;57.00;;;;;;5042757;28;20202;-86
2022/01/26 13:01:45;;;;;;;25.20;15.03;;;6.20;57.40;;;;;;5038381;28;20317;-84
2022/01/26 13:04:16;;;;;;;23.40;14.47;;;6.20;56.20;;;;;;5046147;28;20902;-87
2022/01/26 13:06:51;;;;;;;21.80;14.03;;;6.20;56.80;;;;;;5044395;28;20228;-86
2022/01/26 13:09:20;;;;;;;24.77;14.10;;;6.20;57.30;;;;;;5049349;28;20213;-83
2022/01/26 13:11:49;;;;;;;22.17;14.57;;;6.00;56.90;;;;;;5043741;28;20760;-83
2022/01/26 13:14:37;;;;;;;23.10;15.43;;;6.00;57.70;;;;;;5046022;28;20732;-84
2022/01/26 13:17:12;;;;;;;23.37;15.73;;;6.00;59.20;;;;;;5044186;28;20253;-88
2022/01/26 13:19:55;;;;;;;25.00;14.67;;;6.00;58.60;;;;;;5040973;28;20194;-83
2022/01/26 13:25:11;;;;;;;25.13;15.00;;;6.00;61.30;;;;;;5050776;28;20710;-82
2022/01/26 13:28:01;;;;;;;22.83;15.30;;;6.00;60.00;;;;;;5043387;28;20226;-82
2022/01/26 13:30:57;;;;;;;23.73;15.30;;;6.00;59.40;;;;;;5039894;28;20205;-84
2022/01/26 13:34:09;;;;;;;21.10;14.53;;;5.90;59.60;;;;;;5034783;28;21044;-84
2022/01/26 13:42:37;;;;;;;24.13;14.90;;;6.10;57.20;;;;;;5046135;28;20222;-82
2022/01/26 13:48:17;;;;;;;23.13;14.93;;;5.90;58.40;;;;;;5048458;28;20238;-83
2022/01/26 13:50:50;;;;;;;22.33;14.60;;;5.80;59.90;;;;;;5043320;28;20196;-86
2022/01/26 13:53:20;;;;;;;22.70;14.80;;;5.90;59.20;;;;;;5048275;28;20551;-82
2022/01/26 13:56:07;;;;;;;22.57;15.07;;;5.90;59.20;;;;;;5040876;28;20199;-84
2022/01/26 14:01:19;;;;;;;27.47;15.63;;;5.70;59.20;;;;;;5043081;28;20575;-82
2022/01/26 14:03:52;;;;;;;22.60;15.50;;;5.60;60.40;;;;;;5043246;28;20277;-86
2022/01/26 14:06:19;;;;;;;22.73;15.97;;;5.60;61.50;;;;;;5041614;28;20194;-82
2022/01/26 14:08:46;;;;;;;22.43;15.87;;;5.60;61.10;;;;;;5045169;28;20200;-85
2022/01/26 14:11:12;;;;;;;24.43;16.70;;;5.50;61.00;;;;;;5043634;28;20209;-82
2022/01/26 14:13:40;;;;;;;29.73;18.23;;;5.50;63.60;;;;;;5073608;28;20284;-86
2022/01/26 14:16:10;;;;;;;26.20;16.87;;;5.50;64.70;;;;;;5067608;28;20209;-84
2022/01/26 14:18:47;;;;;;;23.10;16.03;;;5.60;63.20;;;;;;5069945;28;20729;-85
2022/01/26 14:26:51;;;;;;;29.30;16.50;;;5.50;65.30;;;;;;5052532;28;20218;-83
2022/01/26 14:29:27;;;;;;;25.20;17.20;;;5.40;66.00;;;;;;5052988;28;20262;-83
2022/01/26 14:32:07;;;;;;;26.93;16.97;;;5.40;66.70;;;;;;5035797;28;20228;-82
2022/01/26 14:40:50;;;;;;;24.67;16.10;;;5.40;67.20;;;;;;5070792;28;20194;-82
2022/01/26 15:00:27;;;;;;;25.40;16.63;;;5.20;70.00;;;;;;5064219;28;20231;-84
2022/01/26 15:30:48;;;;;;;30.33;18.97;;;4.60;79.30;;;;;;5046230;28;20244;-82
2022/01/26 15:33:28;;;;;;;29.80;18.30;;;4.60;79.50;;;;;;5034741;28;20226;-81
2022/01/26 15:44:40;;;;;;;37.43;20.87;;;4.30;82.50;;;;;;5022497;28;20676;-86
2022/01/26 15:49:58;;;;;;;38.60;21.63;;;4.10;86.30;;;;;;5045142;28;20286;-82
2022/01/26 15:52:44;;;;;;;43.40;23.07;;;4.00;88.30;;;;;;5050041;28;20218;-80
2022/01/26 15:58:22;;;;;;;42.50;23.07;;;3.70;90.10;;;;;;5015230;28;20226;-81